createdAt,value
2023-04-07T00:01:34.561Z,6.70
2023-04-07T00:04:38.577Z,6.65
2023-04-07T00:07:55.045Z,7.45
2023-04-07T00:11:01.066Z,7.78
2023-04-07T00:14:06.035Z,6.60
2023-04-07T00:17:10.292Z,8.10
2023-04-07T00:20:15.286Z,6.28
2023-04-07T00:23:19.210Z,6.28
2023-04-07T00:26:22.984Z,6.38
2023-04-07T00:29:27.011Z,6.85
2023-04-07T00:32:30.843Z,6.95
2023-04-07T00:35:37.263Z,7.10
2023-04-07T00:38:41.138Z,8.18
2023-04-07T00:41:44.906Z,9.82
2023-04-07T00:44:48.780Z,10.05
2023-04-07T00:47:53.155Z,8.98
2023-04-07T00:50:57.636Z,12.27
2023-04-07T00:54:03.800Z,11.18
2023-04-07T00:57:08.208Z,12.00
2023-04-07T01:00:12.460Z,11.45
2023-04-07T01:03:26.367Z,11.50
2023-04-07T01:06:35.172Z,11.95
2023-04-07T01:09:47.906Z,14.10
2023-04-07T01:13:25.862Z,12.88
2023-04-07T01:16:45.182Z,12.80
2023-04-07T01:20:03.566Z,14.57
2023-04-07T01:23:09.828Z,14.52
2023-04-07T01:26:16.504Z,14.10
2023-04-07T01:29:38.320Z,15.25
2023-04-07T01:32:49.022Z,16.13
2023-04-07T01:35:56.220Z,15.88
2023-04-07T01:42:11.454Z,16.65
2023-04-07T01:45:17.717Z,18.27
2023-04-07T01:48:26.717Z,18.17
2023-04-07T01:51:32.377Z,17.80
2023-04-07T01:54:37.541Z,19.83
2023-04-07T01:57:41.584Z,21.30
2023-04-07T02:00:53.504Z,20.55
2023-04-07T02:04:22.890Z,17.00
2023-04-07T02:07:31.325Z,17.88
2023-04-07T02:10:39.231Z,20.42
2023-04-07T02:13:45.576Z,20.48
2023-04-07T02:17:11.230Z,20.88
2023-04-07T02:20:16.793Z,21.50
2023-04-07T02:23:22.012Z,25.35
2023-04-07T02:26:25.850Z,21.67
2023-04-07T02:29:30.411Z,22.65
2023-04-07T02:32:35.247Z,23.50
2023-04-07T02:35:39.682Z,23.67
2023-04-07T02:38:43.684Z,23.63
2023-04-07T02:41:47.448Z,26.52
2023-04-07T02:44:52.378Z,25.70
2023-04-07T02:47:56.925Z,25.53
2023-04-07T02:51:01.717Z,24.98
2023-04-07T02:54:06.147Z,24.97
2023-04-07T02:57:10.690Z,27.95
2023-04-07T03:00:17.431Z,24.95
2023-04-07T03:03:35.520Z,24.75
2023-04-07T03:06:54.584Z,24.98
2023-04-07T03:09:59.884Z,25.05
2023-04-07T03:13:03.918Z,25.88
2023-04-07T03:16:12.046Z,25.20
2023-04-07T03:19:30.905Z,24.25
2023-04-07T03:22:35.593Z,25.75
2023-04-07T03:25:39.868Z,25.70
2023-04-07T03:28:43.894Z,24.17
2023-04-07T03:31:49.221Z,25.27
2023-04-07T03:34:58.045Z,25.00
2023-04-07T03:38:02.308Z,25.27
2023-04-07T03:41:07.227Z,26.30
2023-04-07T03:44:12.272Z,25.67
2023-04-07T03:47:17.787Z,26.58
2023-04-07T03:50:28.285Z,26.45
2023-04-07T03:53:45.674Z,26.10
2023-04-07T03:57:16.504Z,25.45
2023-04-07T04:00:24.662Z,26.25
2023-04-07T04:03:42.258Z,26.90
2023-04-07T04:07:02.222Z,24.88
2023-04-07T04:10:32.899Z,25.90
2023-04-07T04:13:39.885Z,26.95
2023-04-07T04:16:44.744Z,27.92
2023-04-07T04:20:03.706Z,29.33
2023-04-07T04:23:18.589Z,30.02
2023-04-07T04:26:26.884Z,28.60
2023-04-07T04:29:35.449Z,30.20
2023-04-07T04:32:43.364Z,29.70
2023-04-07T04:35:47.998Z,32.25
2023-04-07T04:38:55.797Z,32.85
2023-04-07T04:42:00.930Z,34.42
2023-04-07T04:45:12.299Z,34.58
2023-04-07T04:48:22.301Z,32.80
2023-04-07T04:51:27.247Z,33.67
2023-04-07T04:54:45.796Z,31.23
2023-04-07T04:57:50.488Z,32.80
2023-04-07T05:01:02.240Z,34.75
2023-04-07T05:04:27.289Z,33.33
2023-04-07T05:07:41.941Z,32.38
2023-04-07T05:10:49.817Z,38.65
2023-04-07T05:14:00.297Z,34.70
2023-04-07T05:17:05.347Z,33.45
2023-04-07T05:20:12.308Z,31.30
2023-04-07T05:23:18.661Z,32.25
2023-04-07T05:26:25.680Z,31.83
2023-04-07T05:29:31.201Z,31.57
2023-04-07T05:32:36.338Z,33.33
2023-04-07T05:35:47.756Z,33.35
2023-04-07T05:38:52.825Z,33.53
2023-04-07T05:41:58.621Z,42.70
2023-04-07T05:45:06.031Z,44.80
2023-04-07T05:48:12.295Z,45.17
2023-04-07T05:51:21.475Z,50.10
2023-04-07T05:54:27.054Z,50.33
2023-04-07T05:57:43.557Z,49.95
2023-04-07T06:00:48.386Z,49.28
2023-04-07T06:03:55.453Z,51.60
2023-04-07T06:07:04.781Z,49.40
2023-04-07T06:10:09.636Z,50.95
2023-04-07T06:13:13.655Z,51.78
2023-04-07T06:16:18.966Z,48.30
2023-04-07T06:19:24.205Z,46.35
2023-04-07T06:22:28.241Z,49.65
2023-04-07T06:25:32.180Z,67.10
2023-04-07T06:28:38.567Z,57.90
2023-04-07T06:31:42.690Z,60.47
2023-04-07T06:34:46.767Z,63.60
2023-04-07T06:37:51.288Z,71.05
2023-04-07T06:40:55.431Z,67.07
2023-04-07T06:43:59.340Z,65.47
2023-04-07T06:47:03.687Z,64.90
2023-04-07T06:50:08.800Z,65.88
2023-04-07T06:53:13.729Z,67.75
2023-04-07T06:56:18.306Z,68.15
2023-04-07T06:59:22.340Z,76.43
2023-04-07T07:02:26.985Z,70.28
2023-04-07T07:05:31.905Z,74.20
2023-04-07T07:08:36.496Z,70.80
2023-04-07T07:11:41.198Z,72.57
2023-04-07T07:14:46.026Z,72.28
2023-04-07T07:17:50.125Z,76.17
2023-04-07T07:20:54.530Z,81.72
2023-04-07T07:23:58.677Z,93.18
2023-04-07T07:27:03.319Z,81.28
2023-04-07T07:30:08.088Z,78.55
2023-04-07T07:33:12.334Z,75.07
2023-04-07T07:36:17.044Z,69.28
2023-04-07T07:39:22.045Z,65.60
2023-04-07T07:42:26.508Z,62.33
2023-04-07T07:45:30.474Z,59.72
2023-04-07T07:48:34.397Z,61.83
2023-04-07T07:51:39.294Z,68.57
2023-04-07T07:54:44.017Z,57.85
2023-04-07T07:57:48.046Z,57.58
2023-04-07T08:00:52.506Z,46.58
2023-04-07T08:03:56.523Z,45.45
2023-04-07T08:07:01.493Z,46.28
2023-04-07T08:10:05.671Z,45.23
2023-04-07T08:13:10.471Z,43.78
2023-04-07T08:16:15.082Z,36.43
2023-04-07T08:19:19.903Z,34.55
2023-04-07T08:22:24.398Z,35.33
2023-04-07T08:25:28.757Z,26.92
2023-04-07T08:28:35.523Z,22.50
2023-04-07T08:31:39.801Z,25.08
2023-04-07T08:34:44.377Z,27.90
2023-04-07T08:37:48.772Z,23.95
2023-04-07T08:41:04.304Z,20.98
2023-04-07T08:44:10.261Z,16.63
2023-04-07T08:47:18.967Z,16.80
2023-04-07T08:50:28.002Z,13.82
2023-04-07T08:53:43.073Z,14.80
2023-04-07T08:56:47.148Z,15.07
2023-04-07T08:59:52.202Z,12.68
2023-04-07T09:02:57.708Z,12.02
2023-04-07T09:06:03.503Z,10.73
2023-04-07T09:09:08.207Z,11.43
2023-04-07T09:12:13.430Z,8.77
2023-04-07T09:15:18.280Z,8.27
2023-04-07T09:18:22.443Z,7.47
2023-04-07T09:21:28.261Z,5.35
2023-04-07T09:24:33.808Z,5.10
2023-04-07T09:27:38.760Z,5.35
2023-04-07T09:30:55.479Z,3.92
2023-04-07T09:34:00.670Z,4.20
2023-04-07T09:37:07.468Z,3.47
2023-04-07T09:40:12.764Z,3.33
2023-04-07T09:46:26.045Z,3.53
2023-04-07T09:49:30.831Z,3.30
2023-04-07T09:52:55.286Z,4.03
2023-04-07T09:55:59.983Z,3.50
2023-04-07T09:59:05.860Z,3.22
2023-04-07T10:05:14.646Z,3.53
2023-04-07T10:08:19.156Z,3.53
2023-04-07T10:11:23.849Z,3.95
2023-04-07T10:14:32.930Z,3.55
2023-04-07T10:17:39.090Z,3.50
2023-04-07T10:20:44.206Z,3.67
2023-04-07T10:24:16.813Z,4.00
2023-04-07T10:27:32.423Z,3.72
2023-04-07T10:30:37.736Z,3.60
2023-04-07T10:34:00.254Z,4.10
2023-04-07T10:37:14.924Z,4.22
2023-04-07T10:40:27.885Z,4.50
2023-04-07T10:43:40.691Z,4.68
2023-04-07T10:46:47.457Z,4.05
2023-04-07T10:50:23.429Z,3.53
2023-04-07T10:53:29.828Z,4.30
2023-04-07T10:57:05.254Z,3.78
2023-04-07T11:00:12.302Z,3.70
2023-04-07T11:03:18.432Z,3.53
2023-04-07T11:06:23.176Z,3.90
2023-04-07T11:09:27.615Z,3.58
2023-04-07T11:12:33.418Z,3.85
2023-04-07T11:15:40.906Z,4.07
2023-04-07T11:18:47.261Z,4.07
2023-04-07T11:21:51.328Z,4.05
2023-04-07T11:24:55.719Z,7.97
2023-04-07T11:28:01.471Z,4.97
2023-04-07T11:31:07.576Z,5.72
2023-04-07T11:34:12.891Z,6.53
2023-04-07T11:37:29.686Z,8.00
2023-04-07T11:40:37.779Z,8.75
2023-04-07T11:43:43.200Z,7.25
2023-04-07T11:46:58.548Z,7.05
2023-04-07T11:50:03.470Z,8.43
2023-04-07T11:53:08.201Z,10.77
2023-04-07T11:56:19.419Z,14.52
2023-04-07T11:59:26.497Z,53.13
2023-04-07T12:02:35.738Z,15.80
2023-04-07T12:05:46.874Z,35.88
2023-04-07T12:08:50.917Z,122.53
2023-04-07T12:11:55.585Z,113.70
2023-04-07T12:14:59.855Z,7.75
2023-04-07T12:18:04.897Z,121.68
2023-04-07T12:21:09.408Z,40.92
2023-04-07T12:24:14.151Z,25.10
2023-04-07T12:27:19.343Z,11.50
2023-04-07T12:30:26.597Z,12.00
2023-04-07T12:33:31.197Z,21.27
2023-04-07T12:36:35.845Z,15.23
2023-04-07T12:39:40.390Z,15.50
2023-04-07T12:42:44.970Z,14.68
2023-04-07T12:45:50.917Z,9.35
2023-04-07T12:48:55.107Z,35.63
2023-04-07T12:52:00.845Z,23.63
2023-04-07T12:55:04.946Z,15.00
2023-04-07T12:58:10.331Z,30.20
2023-04-07T13:01:14.491Z,17.33
2023-04-07T13:04:18.794Z,41.85
2023-04-07T13:07:23.312Z,55.10
2023-04-07T13:10:28.024Z,32.70
2023-04-07T13:13:33.119Z,62.20
2023-04-07T13:16:37.229Z,18.20
2023-04-07T13:19:42.297Z,20.42
2023-04-07T13:22:50.733Z,17.75
2023-04-07T13:26:04.841Z,8.75
2023-04-07T13:29:09.231Z,9.55
2023-04-07T13:32:16.750Z,7.82
2023-04-07T13:35:20.672Z,17.02
2023-04-07T13:38:24.524Z,52.78
2023-04-07T13:41:29.216Z,17.80
2023-04-07T13:44:35.590Z,9.88
2023-04-07T13:47:39.637Z,41.70
2023-04-07T13:50:44.198Z,15.20
2023-04-07T13:53:48.992Z,13.82
2023-04-07T13:56:53.660Z,11.70
2023-04-07T13:59:58.028Z,12.93
2023-04-07T14:03:02.825Z,14.05
2023-04-07T14:06:07.482Z,9.30
2023-04-07T14:09:11.938Z,17.85
2023-04-07T14:12:16.271Z,16.80
2023-04-07T14:15:20.742Z,12.98
2023-04-07T14:18:25.453Z,14.55
2023-04-07T14:21:29.521Z,15.23
2023-04-07T14:24:43.502Z,8.55
2023-04-07T14:27:47.518Z,14.18
2023-04-07T14:30:52.398Z,12.48
2023-04-07T14:33:59.436Z,16.10
2023-04-07T14:37:05.215Z,7.90
2023-04-07T14:40:10.368Z,15.93
2023-04-07T14:43:14.170Z,7.43
2023-04-07T14:46:18.733Z,18.15
2023-04-07T14:49:22.998Z,15.40
2023-04-07T14:52:26.964Z,14.13
2023-04-07T14:55:32.145Z,12.52
2023-04-07T14:58:38.292Z,8.88
2023-04-07T15:01:42.722Z,15.00
2023-04-07T15:04:47.689Z,16.67
2023-04-07T15:07:53.127Z,14.27
2023-04-07T15:10:57.057Z,22.63
2023-04-07T15:14:01.727Z,48.70
2023-04-07T15:17:06.383Z,56.20
2023-04-07T15:20:11.287Z,21.92
2023-04-07T15:23:15.549Z,29.40
2023-04-07T15:26:23.457Z,40.72
2023-04-07T15:29:28.194Z,27.20
2023-04-07T15:32:33.068Z,22.20
2023-04-07T15:35:37.158Z,35.88
2023-04-07T15:38:41.260Z,49.53
2023-04-07T15:41:45.264Z,43.67
2023-04-07T15:44:52.073Z,74.90
2023-04-07T15:47:56.824Z,44.92
2023-04-07T15:51:01.100Z,54.45
2023-04-07T15:54:04.998Z,32.58
2023-04-07T15:57:08.882Z,12.48
2023-04-07T16:00:12.972Z,7.40
2023-04-07T16:03:19.264Z,9.27
2023-04-07T16:06:23.947Z,15.18
2023-04-07T16:09:29.412Z,28.15
2023-04-07T16:12:35.060Z,21.17
2023-04-07T16:15:41.124Z,52.53
2023-04-07T16:18:45.813Z,53.00
2023-04-07T16:21:50.187Z,27.63
2023-04-07T16:24:54.243Z,17.45
2023-04-07T16:27:58.997Z,13.10
2023-04-07T16:31:03.899Z,7.83
2023-04-07T16:34:08.086Z,7.80
2023-04-07T16:37:12.024Z,6.93
2023-04-07T16:40:15.910Z,12.52
2023-04-07T16:43:20.524Z,16.08
2023-04-07T16:46:28.179Z,17.30
2023-04-07T16:49:32.607Z,16.58
2023-04-07T16:52:36.667Z,24.80
2023-04-07T16:55:41.284Z,11.68
2023-04-07T16:58:45.626Z,6.18
2023-04-07T17:01:49.674Z,6.13
2023-04-07T17:04:53.685Z,6.18
2023-04-07T17:07:58.092Z,6.35
2023-04-07T17:11:02.653Z,14.57
2023-04-07T17:14:07.188Z,36.25
2023-04-07T17:17:11.435Z,15.02
2023-04-07T17:20:18.504Z,43.22
2023-04-07T17:23:23.273Z,30.17
2023-04-07T17:26:27.294Z,19.23
2023-04-07T17:29:32.122Z,15.95
2023-04-07T17:32:36.795Z,12.23
2023-04-07T17:35:41.249Z,10.43
2023-04-07T17:38:46.892Z,11.25
2023-04-07T17:41:51.448Z,11.57
2023-04-07T17:44:55.804Z,10.25
2023-04-07T17:48:02.391Z,10.65
2023-04-07T17:51:06.636Z,11.90
2023-04-07T17:54:10.604Z,12.18
2023-04-07T17:57:15.222Z,11.98
2023-04-07T18:00:19.569Z,12.18
2023-04-07T18:03:23.697Z,19.17
2023-04-07T18:06:29.298Z,16.40
2023-04-07T18:09:34.554Z,29.70
2023-04-07T18:12:39.882Z,31.58
2023-04-07T18:15:44.255Z,58.25
2023-04-07T18:18:49.666Z,33.97
2023-04-07T18:21:53.860Z,38.00
2023-04-07T18:24:58.236Z,23.77
2023-04-07T18:28:03.366Z,17.48
2023-04-07T18:31:08.807Z,12.82
2023-04-07T18:34:13.595Z,9.80
2023-04-07T18:37:18.458Z,9.27
2023-04-07T18:40:22.700Z,8.65
2023-04-07T18:43:28.811Z,8.60
2023-04-07T18:46:32.741Z,7.18
2023-04-07T18:49:36.575Z,7.80
2023-04-07T18:52:41.275Z,7.95
2023-04-07T18:55:45.375Z,8.20
2023-04-07T18:58:49.627Z,9.57
2023-04-07T19:01:54.174Z,8.57
2023-04-07T19:04:58.761Z,9.40
2023-04-07T19:08:02.801Z,8.68
2023-04-07T19:11:07.112Z,8.40
2023-04-07T19:14:10.866Z,51.80
2023-04-07T19:17:15.314Z,47.13
2023-04-07T19:20:19.543Z,40.45
2023-04-07T19:23:23.721Z,21.77
2023-04-07T19:26:30.211Z,11.63
2023-04-07T19:29:36.226Z,21.63
2023-04-07T19:32:40.830Z,16.45
2023-04-07T19:35:45.137Z,10.38
2023-04-07T19:38:49.726Z,9.32
2023-04-07T19:41:54.202Z,9.95
2023-04-07T19:45:01.143Z,10.13
2023-04-07T19:48:08.518Z,9.43
2023-04-07T19:51:13.594Z,9.25
2023-04-07T19:54:18.202Z,9.25
2023-04-07T19:57:22.645Z,9.68
2023-04-07T20:00:26.814Z,10.30
2023-04-07T20:03:32.243Z,10.50
2023-04-07T20:06:37.384Z,9.13
2023-04-07T20:09:42.110Z,11.68
2023-04-07T20:12:46.657Z,13.73
2023-04-07T20:15:50.759Z,21.50
2023-04-07T20:18:55.958Z,11.05
2023-04-07T20:22:00.817Z,10.15
2023-04-07T20:25:06.280Z,10.87
2023-04-07T20:28:10.289Z,11.75
2023-04-07T20:31:14.299Z,18.33
2023-04-07T20:34:18.718Z,11.35
2023-04-07T20:37:24.362Z,10.75
2023-04-07T20:40:28.391Z,11.13
2023-04-07T20:43:32.758Z,10.57
2023-04-07T20:46:37.092Z,11.70
2023-04-07T20:49:43.305Z,20.27
2023-04-07T20:52:47.766Z,11.95
2023-04-07T20:55:52.588Z,11.07
2023-04-07T20:58:56.917Z,13.00
2023-04-07T21:02:01.551Z,10.40
2023-04-07T21:05:06.156Z,18.47
2023-04-07T21:08:10.062Z,12.27
2023-04-07T21:11:14.554Z,12.00
2023-04-07T21:14:18.529Z,11.85
2023-04-07T21:17:22.793Z,13.52
2023-04-07T21:20:27.184Z,29.65
2023-04-07T21:23:32.664Z,16.85
2023-04-07T21:26:37.276Z,31.15
2023-04-07T21:29:43.328Z,34.90
2023-04-07T21:35:53.008Z,35.10
2023-04-07T21:42:02.372Z,24.77
2023-04-07T21:45:08.195Z,22.65
2023-04-07T21:51:18.093Z,25.33
2023-04-07T21:54:23.075Z,26.88
2023-04-07T21:57:27.642Z,29.80
2023-04-07T22:00:32.122Z,38.78
2023-04-07T22:03:36.157Z,42.50
2023-04-07T22:06:40.721Z,44.63
2023-04-07T22:09:45.558Z,47.13
2023-04-07T22:12:49.544Z,40.97
2023-04-07T22:15:53.628Z,41.08
2023-04-07T22:18:58.288Z,35.70
2023-04-07T22:22:03.899Z,31.52
2023-04-07T22:25:08.344Z,32.15
2023-04-07T22:28:12.303Z,28.48
2023-04-07T22:31:16.922Z,28.83
2023-04-07T22:34:20.860Z,29.70
2023-04-07T22:37:24.655Z,25.67
2023-04-07T22:40:28.837Z,26.45
2023-04-07T22:43:32.842Z,23.48
2023-04-07T22:46:37.053Z,23.85
2023-04-07T22:49:41.509Z,28.20
2023-04-07T22:52:46.239Z,25.90
2023-04-07T22:55:50.824Z,36.77
2023-04-07T22:58:55.343Z,23.27
2023-04-07T23:02:00.139Z,24.52
2023-04-07T23:05:05.943Z,23.10
2023-04-07T23:08:10.300Z,18.98
2023-04-07T23:11:14.608Z,20.98
2023-04-07T23:14:19.540Z,18.90
2023-04-07T23:17:23.510Z,19.07
2023-04-07T23:20:27.496Z,17.30
2023-04-07T23:23:31.873Z,17.95
2023-04-07T23:26:36.127Z,17.77
2023-04-07T23:29:39.856Z,21.45
2023-04-07T23:32:43.879Z,20.23
2023-04-07T23:35:48.150Z,18.95
2023-04-07T23:38:52.105Z,24.42
2023-04-07T23:41:56.652Z,19.50
2023-04-07T23:45:01.436Z,18.33
2023-04-07T23:48:07.424Z,15.73
2023-04-07T23:51:12.015Z,14.60
2023-04-07T23:54:17.061Z,14.35
2023-04-07T23:57:21.211Z,16.25
